createdAt,value
2018-02-09T00:02:19.632Z,100383.58
2018-02-09T00:04:47.095Z,100384.00
2018-02-09T00:07:14.610Z,100385.37
2018-02-09T00:09:42.825Z,100386.94
2018-02-09T00:12:10.314Z,100383.72
2018-02-09T00:14:37.854Z,100380.61
2018-02-09T00:17:05.627Z,100383.67
2018-02-09T00:19:33.380Z,100377.30
2018-02-09T00:22:01.462Z,100382.16
2018-02-09T00:24:30.282Z,100377.73
2018-02-09T00:26:58.030Z,100381.20
2018-02-09T00:29:25.527Z,100375.03
2018-02-09T00:31:53.227Z,100376.35
2018-02-09T00:34:20.754Z,100381.02
2018-02-09T00:36:48.267Z,100371.40
2018-02-09T00:39:16.028Z,100381.84
2018-02-09T00:41:44.221Z,100386.92
2018-02-09T00:44:11.862Z,100375.23
2018-02-09T00:46:39.391Z,100374.81
2018-02-09T00:49:07.692Z,100375.27
2018-02-09T00:51:35.231Z,100359.89
2018-02-09T00:54:03.613Z,100359.47
2018-02-09T00:56:31.307Z,100354.53
2018-02-09T00:58:59.755Z,100358.75
2018-02-09T01:01:27.459Z,100355.84
2018-02-09T01:03:55.306Z,100354.16
2018-02-09T01:06:23.171Z,100358.09
2018-02-09T01:08:50.734Z,100348.58
2018-02-09T01:11:18.239Z,100350.80
2018-02-09T01:13:45.781Z,100351.00
2018-02-09T01:16:13.288Z,100349.59
2018-02-09T01:18:41.801Z,100349.27
2018-02-09T01:21:09.835Z,100352.72
2018-02-09T01:23:37.324Z,100347.94
2018-02-09T01:26:05.799Z,100348.01
2018-02-09T01:28:33.318Z,100347.88
2018-02-09T01:31:00.783Z,100343.52
2018-02-09T01:33:28.272Z,100341.84
2018-02-09T01:35:56.078Z,100351.77
2018-02-09T01:38:23.603Z,100341.88
2018-02-09T01:40:51.110Z,100343.52
2018-02-09T01:43:19.342Z,100344.92
2018-02-09T01:45:47.359Z,100334.71
2018-02-09T01:48:14.875Z,100340.05
2018-02-09T01:50:42.335Z,100338.47
2018-02-09T01:53:10.083Z,100326.80
2018-02-09T01:55:37.578Z,100331.19
2018-02-09T01:58:05.351Z,100324.66
2018-02-09T02:00:33.293Z,100326.16
2018-02-09T02:03:02.252Z,100323.05
2018-02-09T02:05:29.798Z,100315.37
2018-02-09T02:07:57.594Z,100318.23
2018-02-09T02:10:25.344Z,100318.51
2018-02-09T02:12:53.751Z,100320.19
2018-02-09T02:15:21.290Z,100325.73
2018-02-09T02:17:50.469Z,100311.00
2018-02-09T02:20:18.221Z,100308.16
2018-02-09T02:22:46.789Z,100316.30
2018-02-09T02:25:15.275Z,100315.08
2018-02-09T02:27:43.096Z,100315.84
2018-02-09T02:30:10.703Z,100299.46
2018-02-09T02:32:38.984Z,100308.95
2018-02-09T02:35:06.510Z,100306.05
2018-02-09T02:37:34.223Z,100306.55
2018-02-09T02:40:02.531Z,100304.22
2018-02-09T02:42:30.043Z,100293.27
2018-02-09T02:44:57.560Z,100291.44
2018-02-09T02:47:25.853Z,100290.52
2018-02-09T02:49:53.369Z,100285.30
2018-02-09T02:52:20.911Z,100293.22
2018-02-09T02:54:48.402Z,100286.29
2018-02-09T02:57:15.910Z,100280.21
2018-02-09T02:59:43.394Z,100284.98
2018-02-09T03:02:10.955Z,100275.13
2018-02-09T03:04:38.474Z,100277.42
2018-02-09T03:07:05.978Z,100273.32
2018-02-09T03:09:33.523Z,100271.86
2018-02-09T03:12:01.296Z,100269.22
2018-02-09T03:14:29.127Z,100264.92
2018-02-09T03:16:56.926Z,100255.14
2018-02-09T03:19:24.427Z,100260.33
2018-02-09T03:21:52.138Z,100248.88
2018-02-09T03:24:19.848Z,100253.21
2018-02-09T03:26:47.409Z,100245.56
2018-02-09T03:29:14.937Z,100238.11
2018-02-09T03:31:43.842Z,100234.00
2018-02-09T03:34:11.382Z,100232.97
2018-02-09T03:36:39.106Z,100231.67
2018-02-09T03:39:06.840Z,100229.07
2018-02-09T03:41:34.565Z,100226.93
2018-02-09T03:44:02.067Z,100225.17
2018-02-09T03:46:29.575Z,100223.17
2018-02-09T03:48:57.825Z,100215.86
2018-02-09T03:51:25.574Z,100221.31
2018-02-09T03:53:54.015Z,100212.31
2018-02-09T03:56:21.574Z,100214.56
2018-02-09T03:58:49.078Z,100211.92
2018-02-09T04:01:17.961Z,100216.50
2018-02-09T04:03:46.270Z,100212.13
2018-02-09T04:06:13.974Z,100208.56
2018-02-09T04:08:41.467Z,100211.09
2018-02-09T04:11:09.250Z,100206.16
2018-02-09T04:13:36.717Z,100206.45
2018-02-09T04:16:04.267Z,100205.53
2018-02-09T04:18:31.799Z,100204.50
2018-02-09T04:21:00.382Z,100207.02
2018-02-09T04:23:28.100Z,100199.22
2018-02-09T04:25:56.375Z,100203.12
2018-02-09T04:28:23.840Z,100199.99
2018-02-09T04:30:51.367Z,100197.16
2018-02-09T04:33:19.101Z,100197.48
2018-02-09T04:35:46.706Z,100192.58
2018-02-09T04:38:14.206Z,100199.25
2018-02-09T04:40:41.722Z,100194.48
2018-02-09T04:43:10.142Z,100201.56
2018-02-09T04:45:38.006Z,100203.48
2018-02-09T04:48:05.748Z,100203.13
2018-02-09T04:50:33.282Z,100194.53
2018-02-09T04:53:00.746Z,100207.09
2018-02-09T04:55:28.286Z,100189.00
2018-02-09T04:57:57.494Z,100194.29
2018-02-09T05:00:25.423Z,100193.91
2018-02-09T05:02:52.891Z,100188.27
2018-02-09T05:05:20.406Z,100190.75
2018-02-09T05:07:48.135Z,100187.45
2018-02-09T05:10:15.635Z,100180.05
2018-02-09T05:12:43.114Z,100177.78
2018-02-09T05:15:10.638Z,100182.05
2018-02-09T05:17:39.212Z,100181.52
2018-02-09T05:20:07.735Z,100183.41
2018-02-09T05:22:36.193Z,100176.98
2018-02-09T05:25:03.674Z,100173.05
2018-02-09T05:27:31.167Z,100175.59
2018-02-09T05:29:59.247Z,100174.38
2018-02-09T05:32:26.868Z,100171.42
2018-02-09T05:34:54.330Z,100167.69
2018-02-09T05:37:22.678Z,100160.41
2018-02-09T05:39:50.266Z,100156.48
2018-02-09T05:42:18.026Z,100157.61
2018-02-09T05:44:45.617Z,100150.04
2018-02-09T05:47:13.162Z,100154.25
2018-02-09T05:49:40.655Z,100150.81
2018-02-09T05:52:08.616Z,100156.16
2018-02-09T05:54:36.094Z,100151.64
2018-02-09T05:57:03.588Z,100149.20
2018-02-09T05:59:31.465Z,100148.39
2018-02-09T06:01:58.994Z,100141.70
2018-02-09T06:04:26.458Z,100142.17
2018-02-09T06:06:53.943Z,100143.66
2018-02-09T06:09:21.754Z,100140.58
2018-02-09T06:11:49.244Z,100141.33
2018-02-09T06:14:17.515Z,100136.47
2018-02-09T06:16:46.203Z,100135.50
2018-02-09T06:19:13.785Z,100130.70
2018-02-09T06:21:43.037Z,100132.57
2018-02-09T06:24:11.290Z,100136.52
2018-02-09T06:26:38.850Z,100136.78
2018-02-09T06:29:06.688Z,100131.45
2018-02-09T06:31:34.199Z,100134.70
2018-02-09T06:34:01.730Z,100122.75
2018-02-09T06:36:29.206Z,100123.37
2018-02-09T06:38:57.007Z,100122.75
2018-02-09T06:41:25.816Z,100121.84
2018-02-09T06:43:53.303Z,100126.73
2018-02-09T06:46:21.078Z,100129.45
2018-02-09T06:48:49.051Z,100121.37
2018-02-09T06:51:17.483Z,100126.20
2018-02-09T06:53:45.329Z,100132.86
2018-02-09T06:56:12.794Z,100135.37
2018-02-09T06:58:40.686Z,100139.13
2018-02-09T07:01:08.165Z,100133.56
2018-02-09T07:03:35.678Z,100137.99
2018-02-09T07:06:03.614Z,100131.91
2018-02-09T07:08:32.079Z,100143.04
2018-02-09T07:10:59.574Z,100141.88
2018-02-09T07:13:27.561Z,100148.16
2018-02-09T07:15:55.059Z,100143.52
2018-02-09T07:18:23.547Z,100142.42
2018-02-09T07:20:51.443Z,100141.78
2018-02-09T07:23:19.191Z,100143.83
2018-02-09T07:25:46.702Z,100139.95
2018-02-09T07:28:14.660Z,100141.46
2018-02-09T07:30:42.127Z,100151.88
2018-02-09T07:33:09.857Z,100145.16
2018-02-09T07:35:37.447Z,100141.91
2018-02-09T07:38:05.176Z,100147.55
2018-02-09T07:40:32.690Z,100137.62
2018-02-09T07:43:00.174Z,100142.48
2018-02-09T07:45:27.746Z,100134.66
2018-02-09T07:47:55.535Z,100128.53
2018-02-09T07:50:23.928Z,100123.41
2018-02-09T07:52:51.485Z,100122.13
2018-02-09T07:55:19.031Z,100111.63
2018-02-09T07:57:47.693Z,100107.97
2018-02-09T08:00:15.723Z,100100.04
2018-02-09T08:02:43.930Z,100106.31
2018-02-09T08:05:11.431Z,100097.06
2018-02-09T08:07:39.297Z,100093.25
2018-02-09T08:10:06.874Z,100085.70
2018-02-09T08:12:34.377Z,100083.52
2018-02-09T08:15:01.896Z,100078.34
2018-02-09T08:17:29.398Z,100067.64
2018-02-09T08:19:57.366Z,100074.91
2018-02-09T08:22:25.336Z,100075.73
2018-02-09T08:24:53.150Z,100072.17
2018-02-09T08:27:20.623Z,100077.17
2018-02-09T08:29:49.334Z,100076.70
2018-02-09T08:32:17.032Z,100074.43
2018-02-09T08:34:44.579Z,100068.30
2018-02-09T08:37:12.060Z,100053.02
2018-02-09T08:39:39.587Z,100051.83
2018-02-09T08:42:07.605Z,100066.34
2018-02-09T08:44:35.087Z,100065.77
2018-02-09T08:47:02.823Z,100064.17
2018-02-09T08:49:30.351Z,100060.75
2018-02-09T08:51:58.070Z,100061.70
2018-02-09T08:54:25.607Z,100057.24
2018-02-09T08:56:53.075Z,100066.02
2018-02-09T08:59:20.874Z,100065.22
2018-02-09T09:01:50.863Z,100063.09
2018-02-09T09:04:18.607Z,100061.37
2018-02-09T09:06:46.357Z,100057.91
2018-02-09T09:09:14.829Z,100053.17
2018-02-09T09:11:42.311Z,100053.26
2018-02-09T09:14:09.825Z,100051.82
2018-02-09T09:16:38.209Z,100047.03
2018-02-09T09:19:05.735Z,100052.40
2018-02-09T09:21:34.060Z,100035.00
2018-02-09T09:24:01.546Z,100043.20
2018-02-09T09:26:29.808Z,100035.27
2018-02-09T09:28:58.044Z,100035.20
2018-02-09T09:31:25.751Z,100038.59
2018-02-09T09:33:53.299Z,100038.13
2018-02-09T09:36:20.995Z,100033.37
2018-02-09T09:38:49.318Z,100024.78
2018-02-09T09:41:17.133Z,100014.82
2018-02-09T09:43:45.446Z,100015.94
2018-02-09T09:46:13.966Z,100024.64
2018-02-09T09:48:42.299Z,100012.71
2018-02-09T09:51:10.318Z,100015.38
2018-02-09T09:53:37.782Z,100017.06
2018-02-09T09:56:05.319Z,100008.36
2018-02-09T09:58:32.920Z,100014.98
2018-02-09T10:01:00.681Z,100004.72
2018-02-09T10:03:28.870Z,100009.02
2018-02-09T10:05:58.133Z,100009.23
2018-02-09T10:08:26.090Z,100005.91
2018-02-09T10:10:53.671Z,100005.50
2018-02-09T10:13:22.370Z,100007.33
2018-02-09T10:15:50.889Z,100001.61
2018-02-09T10:18:18.620Z,100006.59
2018-02-09T10:20:46.413Z,100012.24
2018-02-09T10:23:14.836Z,100006.23
2018-02-09T10:25:42.828Z,100006.84
2018-02-09T10:28:11.027Z,100002.07
2018-02-09T10:30:39.158Z,100000.55
2018-02-09T10:33:07.735Z,100001.44
2018-02-09T10:35:36.282Z,100006.66
2018-02-09T10:38:03.798Z,100003.89
2018-02-09T10:40:31.411Z,100002.10
2018-02-09T10:42:59.131Z,99997.94
2018-02-09T10:45:27.145Z,100002.14
2018-02-09T10:47:55.822Z,99995.76
2018-02-09T10:50:23.623Z,99997.33
2018-02-09T10:52:51.657Z,99989.07
2018-02-09T10:55:20.547Z,99991.02
2018-02-09T10:57:48.287Z,99998.29
2018-02-09T11:00:16.115Z,99988.08
2018-02-09T11:02:43.640Z,99987.11
2018-02-09T11:05:11.558Z,99988.41
2018-02-09T11:07:39.071Z,99991.64
2018-02-09T11:10:12.480Z,99984.33
2018-02-09T11:12:43.182Z,99984.46
2018-02-09T11:15:11.679Z,99983.98
2018-02-09T11:17:39.747Z,99986.82
2018-02-09T11:20:07.219Z,99983.53
2018-02-09T11:22:35.027Z,99976.78
2018-02-09T11:25:02.526Z,99971.81
2018-02-09T11:27:31.468Z,99968.72
2018-02-09T11:29:59.519Z,99964.70
2018-02-09T11:32:27.051Z,99965.34
2018-02-09T11:34:54.978Z,99964.55
2018-02-09T11:37:22.958Z,99957.88
2018-02-09T11:39:50.471Z,99961.80
2018-02-09T11:42:18.845Z,99942.28
2018-02-09T11:44:46.329Z,99951.70
2018-02-09T11:47:17.875Z,99950.64
2018-02-09T11:49:45.428Z,99947.63
2018-02-09T11:52:13.214Z,99945.27
2018-02-09T11:54:42.149Z,99944.89
2018-02-09T11:57:09.679Z,99943.17
2018-02-09T11:59:37.179Z,99952.89
2018-02-09T12:02:04.693Z,99940.70
2018-02-09T12:04:32.411Z,99940.84
2018-02-09T12:07:00.173Z,99945.17
2018-02-09T12:09:28.018Z,99949.90
2018-02-09T12:11:55.551Z,99948.80
2018-02-09T12:14:23.339Z,99943.88
2018-02-09T12:16:50.940Z,99940.55
2018-02-09T12:19:18.915Z,99946.25
2018-02-09T12:21:47.341Z,99941.14
2018-02-09T12:24:14.859Z,99938.63
2018-02-09T12:26:42.958Z,99941.66
2018-02-09T12:29:11.279Z,99942.95
2018-02-09T12:31:39.053Z,99927.05
2018-02-09T12:34:06.766Z,99933.27
2018-02-09T12:36:35.055Z,99926.13
2018-02-09T12:39:02.911Z,99924.00
2018-02-09T12:41:30.471Z,99916.67
2018-02-09T12:43:57.999Z,99920.70
2018-02-09T12:46:25.519Z,99907.05
2018-02-09T12:48:53.083Z,99906.23
2018-02-09T12:51:22.875Z,99900.48
2018-02-09T12:53:51.490Z,99899.84
2018-02-09T12:56:19.702Z,99899.66
2018-02-09T12:58:47.417Z,99895.64
2018-02-09T13:01:15.143Z,99893.03
2018-02-09T13:03:42.649Z,99889.64
2018-02-09T13:06:11.464Z,99882.67
2018-02-09T13:08:39.568Z,99884.73
2018-02-09T13:11:07.043Z,99877.73
2018-02-09T13:13:34.551Z,99872.69
2018-02-09T13:16:02.047Z,99864.16
2018-02-09T13:18:41.146Z,99860.10
2018-02-09T13:21:08.603Z,99864.53
2018-02-09T13:23:47.931Z,99868.67
2018-02-09T13:26:15.431Z,99859.30
2018-02-09T13:28:54.747Z,99854.50
2018-02-09T13:31:22.206Z,99856.55
2018-02-09T13:33:49.690Z,99853.66
2018-02-09T13:36:17.254Z,99852.31
2018-02-09T13:38:44.754Z,99853.98
2018-02-09T13:41:12.286Z,99855.27
2018-02-09T13:43:39.807Z,99850.25
2018-02-09T13:46:07.267Z,99850.00
2018-02-09T13:48:34.831Z,99850.55
2018-02-09T13:51:02.919Z,99857.01
2018-02-09T13:53:30.407Z,99855.19
2018-02-09T13:55:58.738Z,99856.33
2018-02-09T13:58:27.720Z,99855.89
2018-02-09T14:00:55.259Z,99846.83
2018-02-09T14:03:23.518Z,99850.93
2018-02-09T14:05:51.415Z,99842.70
2018-02-09T14:08:19.114Z,99843.81
2018-02-09T14:10:46.921Z,99845.89
2018-02-09T14:13:15.259Z,99844.17
2018-02-09T14:15:43.086Z,99847.99
2018-02-09T14:18:10.551Z,99845.66
2018-02-09T14:20:38.410Z,99846.87
2018-02-09T14:23:05.955Z,99848.98
2018-02-09T14:25:35.158Z,99854.78
2018-02-09T14:28:02.647Z,99846.33
2018-02-09T14:30:30.142Z,99843.66
2018-02-09T14:32:57.610Z,99840.28
2018-02-09T14:35:25.139Z,99841.84
2018-02-09T14:37:52.974Z,99845.95
2018-02-09T14:40:20.496Z,99842.89
2018-02-09T14:42:48.814Z,99840.92
2018-02-09T14:45:16.295Z,99839.05
2018-02-09T14:47:43.847Z,99836.06
2018-02-09T14:50:11.351Z,99838.05
2018-02-09T14:52:38.808Z,99827.11
2018-02-09T14:55:06.537Z,99837.73
2018-02-09T14:57:34.006Z,99830.36
2018-02-09T15:00:01.521Z,99829.48
2018-02-09T15:02:28.979Z,99831.77
2018-02-09T15:04:56.458Z,99831.72
2018-02-09T15:07:23.926Z,99818.60
2018-02-09T15:09:51.418Z,99830.85
2018-02-09T15:12:18.899Z,99829.18
2018-02-09T15:14:46.383Z,99830.09
2018-02-09T15:17:13.883Z,99833.41
2018-02-09T15:19:41.340Z,99830.06
2018-02-09T15:22:08.803Z,99831.65
2018-02-09T15:24:36.280Z,99826.64
2018-02-09T15:27:03.735Z,99829.47
2018-02-09T15:29:31.223Z,99828.84
2018-02-09T15:31:58.689Z,99823.83
2018-02-09T15:34:26.172Z,99824.28
2018-02-09T15:36:53.639Z,99822.72
2018-02-09T15:39:21.160Z,99814.78
2018-02-09T15:41:48.615Z,99818.11
2018-02-09T15:44:16.112Z,99817.16
2018-02-09T15:46:43.579Z,99822.34
2018-02-09T15:49:11.104Z,99813.34
2018-02-09T15:51:38.567Z,99815.14
2018-02-09T15:54:06.039Z,99807.94
2018-02-09T15:56:33.600Z,99813.80
2018-02-09T15:59:01.063Z,99810.66
2018-02-09T16:01:28.538Z,99818.66
2018-02-09T16:03:55.995Z,99823.74
2018-02-09T16:06:23.475Z,99812.16
2018-02-09T16:08:50.930Z,99812.00
2018-02-09T16:11:18.407Z,99806.00
2018-02-09T16:13:45.867Z,99803.13
2018-02-09T16:16:13.335Z,99803.83
2018-02-09T16:18:40.806Z,99810.37
2018-02-09T16:21:08.291Z,99814.33
2018-02-09T16:23:35.746Z,99810.37
2018-02-09T16:26:03.258Z,99812.23
2018-02-09T16:28:30.719Z,99807.48
2018-02-09T16:30:58.199Z,99809.30
2018-02-09T16:33:25.663Z,99810.06
2018-02-09T16:35:53.153Z,99799.28
2018-02-09T16:38:20.614Z,99800.74
2018-02-09T16:40:48.100Z,99799.36
2018-02-09T16:43:15.559Z,99800.21
2018-02-09T16:45:43.054Z,99808.79
2018-02-09T16:48:10.514Z,99810.80
2018-02-09T16:50:37.987Z,99814.66
2018-02-09T16:53:05.443Z,99810.08
2018-02-09T16:55:32.924Z,99804.78
2018-02-09T16:58:00.400Z,99807.61
2018-02-09T17:00:27.874Z,99812.94
2018-02-09T17:02:55.331Z,99818.60
2018-02-09T17:05:22.811Z,99812.50
2018-02-09T17:07:50.268Z,99820.00
2018-02-09T17:10:17.728Z,99825.37
2018-02-09T17:12:45.231Z,99815.94
2018-02-09T17:15:12.695Z,99817.81
2018-02-09T17:17:40.179Z,99823.66
2018-02-09T17:20:07.636Z,99834.03
2018-02-09T17:22:35.123Z,99830.14
2018-02-09T17:25:02.611Z,99835.01
2018-02-09T17:27:30.091Z,99838.03
2018-02-09T17:29:57.547Z,99835.16
2018-02-09T17:32:25.035Z,99847.81
2018-02-09T17:34:52.494Z,99845.95
2018-02-09T17:37:19.983Z,99842.45
2018-02-09T17:39:47.447Z,99844.59
2018-02-09T17:42:14.930Z,99838.92
2018-02-09T17:44:42.388Z,99843.41
2018-02-09T17:47:09.871Z,99842.55
2018-02-09T17:49:37.338Z,99836.81
2018-02-09T17:52:04.824Z,99842.72
2018-02-09T17:54:32.392Z,99843.52
2018-02-09T17:56:59.870Z,99842.72
2018-02-09T17:59:27.326Z,99846.63
2018-02-09T18:01:54.860Z,99839.04
2018-02-09T18:04:22.316Z,99842.30
2018-02-09T18:06:49.799Z,99849.89
2018-02-09T18:09:17.259Z,99850.34
2018-02-09T18:11:44.734Z,99850.25
2018-02-09T18:14:12.199Z,99853.81
2018-02-09T18:16:41.753Z,99856.47
2018-02-09T18:19:09.223Z,99856.74
2018-02-09T18:21:36.715Z,99857.36
2018-02-09T18:24:04.182Z,99859.68
2018-02-09T18:26:31.668Z,99857.63
2018-02-09T18:28:59.131Z,99856.63
2018-02-09T18:31:26.615Z,99860.42
2018-02-09T18:33:54.072Z,99850.98
2018-02-09T18:36:21.534Z,99853.98
2018-02-09T18:38:49.015Z,99857.78
2018-02-09T18:41:16.479Z,99862.23
2018-02-09T18:43:43.980Z,99866.48
2018-02-09T18:46:11.447Z,99858.58
2018-02-09T18:48:38.938Z,99861.67
2018-02-09T18:51:06.412Z,99859.11
2018-02-09T18:53:33.923Z,99858.70
2018-02-09T18:56:01.383Z,99859.95
2018-02-09T18:58:28.872Z,99853.61
2018-02-09T19:00:56.337Z,99864.18
2018-02-09T19:03:23.819Z,99865.16
2018-02-09T19:05:51.274Z,99860.98
2018-02-09T19:08:18.769Z,99860.98
2018-02-09T19:10:46.222Z,99865.97
2018-02-09T19:13:13.721Z,99868.67
2018-02-09T19:15:41.175Z,99867.95
2018-02-09T19:18:08.680Z,99871.24
2018-02-09T19:20:36.143Z,99872.61
2018-02-09T19:23:03.634Z,99876.70
2018-02-09T19:25:31.086Z,99874.66
2018-02-09T19:27:58.563Z,99879.08
2018-02-09T19:30:26.028Z,99875.88
2018-02-09T19:32:53.504Z,99880.17
2018-02-09T19:35:20.970Z,99877.50
2018-02-09T19:37:48.454Z,99876.80
2018-02-09T19:40:15.922Z,99878.42
2018-02-09T19:42:43.471Z,99881.19
2018-02-09T19:45:10.931Z,99886.20
2018-02-09T19:47:38.409Z,99881.66
2018-02-09T19:50:05.937Z,99884.54
2018-02-09T19:52:33.496Z,99887.92
2018-02-09T19:55:00.982Z,99885.25
2018-02-09T19:57:28.435Z,99882.05
2018-02-09T19:59:55.915Z,99890.80
2018-02-09T20:02:23.370Z,99889.20
2018-02-09T20:04:50.847Z,99898.42
2018-02-09T20:07:18.307Z,99895.99
2018-02-09T20:09:45.788Z,99895.98
2018-02-09T20:12:13.255Z,99891.04
2018-02-09T20:14:40.735Z,99892.08
2018-02-09T20:17:08.190Z,99886.44
2018-02-09T20:19:35.666Z,99894.86
2018-02-09T20:22:03.122Z,99888.28
2018-02-09T20:24:30.594Z,99885.34
2018-02-09T20:26:58.055Z,99880.30
2018-02-09T20:29:25.544Z,99878.57
2018-02-09T20:31:53.012Z,99882.78
2018-02-09T20:34:20.491Z,99880.63
2018-02-09T20:36:47.960Z,99882.75
2018-02-09T20:39:15.444Z,99888.78
2018-02-09T20:41:42.907Z,99879.47
2018-02-09T20:44:10.382Z,99886.44
2018-02-09T20:46:37.843Z,99887.27
2018-02-09T20:49:05.336Z,99893.65
2018-02-09T20:51:32.850Z,99888.39
2018-02-09T20:54:00.333Z,99893.95
2018-02-09T20:56:27.792Z,99890.86
2018-02-09T20:58:55.271Z,99887.15
2018-02-09T21:01:22.723Z,99887.47
2018-02-09T21:03:50.198Z,99892.08
2018-02-09T21:06:17.659Z,99891.86
2018-02-09T21:08:45.181Z,99887.36
2018-02-09T21:11:12.646Z,99888.48
2018-02-09T21:13:40.120Z,99892.67
2018-02-09T21:16:07.580Z,99890.41
2018-02-09T21:18:35.048Z,99893.08
2018-02-09T21:21:02.535Z,99898.96
2018-02-09T21:23:30.003Z,99901.09
2018-02-09T21:25:57.495Z,99898.93
2018-02-09T21:28:24.992Z,99899.13
2018-02-09T21:30:52.475Z,99900.80
2018-02-09T21:33:19.942Z,99904.17
2018-02-09T21:35:47.433Z,99908.09
2018-02-09T21:38:14.899Z,99905.63
2018-02-09T21:40:42.387Z,99902.55
2018-02-09T21:43:09.858Z,99900.29
2018-02-09T21:45:37.377Z,99904.33
2018-02-09T21:48:04.843Z,99904.12
2018-02-09T21:50:32.325Z,99902.19
2018-02-09T21:52:59.829Z,99900.17
2018-02-09T21:55:27.319Z,99903.84
2018-02-09T21:57:54.787Z,99902.84
2018-02-09T22:00:22.271Z,99897.70
2018-02-09T22:02:49.736Z,99895.33
2018-02-09T22:05:17.263Z,99906.84
2018-02-09T22:07:44.724Z,99905.04
2018-02-09T22:10:12.211Z,99898.39
2018-02-09T22:12:39.830Z,99896.58
2018-02-09T22:15:07.311Z,99901.64
2018-02-09T22:17:34.796Z,99907.12
2018-02-09T22:20:02.270Z,99903.80
2018-02-09T22:22:29.727Z,99906.58
2018-02-09T22:24:57.218Z,99907.12
2018-02-09T22:27:24.674Z,99899.78
2018-02-09T22:29:52.154Z,99903.41
2018-02-09T22:32:19.610Z,99914.00
2018-02-09T22:34:47.092Z,99909.16
2018-02-09T22:37:14.558Z,99913.61
2018-02-09T22:39:42.067Z,99913.22
2018-02-09T22:42:09.523Z,99910.97
2018-02-09T22:44:36.983Z,99915.33
2018-02-09T22:47:04.459Z,99916.84
2018-02-09T22:49:31.914Z,99913.09
2018-02-09T22:51:59.386Z,99920.16
2018-02-09T22:54:26.863Z,99918.73
2018-02-09T22:56:54.339Z,99915.58
2018-02-09T22:59:21.790Z,99913.43
2018-02-09T23:01:49.262Z,99913.55
2018-02-09T23:04:16.727Z,99915.39
2018-02-09T23:06:44.202Z,99918.56
2018-02-09T23:09:11.658Z,99914.44
2018-02-09T23:11:39.143Z,99916.86
2018-02-09T23:14:06.599Z,99913.88
2018-02-09T23:16:34.079Z,99920.52
2018-02-09T23:19:01.551Z,99923.72
2018-02-09T23:21:29.150Z,99924.22
2018-02-09T23:23:56.612Z,99918.15
2018-02-09T23:26:24.088Z,99926.39
2018-02-09T23:28:51.659Z,99929.75
2018-02-09T23:31:19.146Z,99927.69
2018-02-09T23:33:46.599Z,99929.69
2018-02-09T23:36:14.074Z,99928.20
2018-02-09T23:38:41.538Z,99924.87
2018-02-09T23:41:09.020Z,99926.45
2018-02-09T23:43:36.492Z,99932.05
2018-02-09T23:46:03.976Z,99924.92
2018-02-09T23:48:31.435Z,99925.06
2018-02-09T23:50:58.916Z,99928.95
2018-02-09T23:53:26.378Z,99926.18
2018-02-09T23:55:53.987Z,99932.55
2018-02-09T23:58:21.542Z,99929.58
